Time;durP1;ratioP1;P1;durP2;ratioP2;P2;SDS_P1;SDS_P2;PMS_P1;PMS_P2;Temp;Humidity;BMP_temperature;BMP_pressure;BME280_temperature;BME280_humidity;BME280_pressure;Samples;Min_cycle;Max_cycle;Signal;HPM_P1;HPM_P2
2022/11/15 00:00:24;;;;;;;33.15;20.10;;;;;;;7.04;100.00;100952.75;4998015;28;20478;-77
2022/11/15 00:03:14;;;;;;;29.50;20.65;;;;;;;7.03;100.00;100949.25;4997748;28;20041;-78
2022/11/15 00:06:02;;;;;;;27.17;19.75;;;;;;;7.03;100.00;100941.38;5009677;28;20409;-78
2022/11/15 00:08:49;;;;;;;29.80;19.42;;;;;;;7.05;100.00;100945.75;5026455;28;20048;-78
2022/11/15 00:11:40;;;;;;;30.98;19.92;;;;;;;7.05;100.00;100945.75;5013778;28;20050;-77
2022/11/15 00:14:26;;;;;;;28.08;19.02;;;;;;;7.05;100.00;100944.03;4976397;28;20046;-78
2022/11/15 00:17:13;;;;;;;28.58;19.85;;;;;;;7.06;100.00;100937.06;5019777;28;20041;-78
2022/11/15 00:20:01;;;;;;;27.98;18.75;;;;;;;7.06;100.00;100930.06;5025376;28;20041;-77
2022/11/15 00:22:47;;;;;;;25.58;17.65;;;;;;;7.07;100.00;100929.22;5031578;28;20033;-78
2022/11/15 00:25:35;;;;;;;28.05;19.35;;;;;;;7.08;100.00;100917.88;5004434;28;20041;-77
2022/11/15 00:28:22;;;;;;;25.50;19.10;;;;;;;7.08;100.00;100919.63;5023887;28;20166;-77
2022/11/15 00:31:13;;;;;;;29.17;20.30;;;;;;;7.07;100.00;100910.88;4961864;28;20042;-78
2022/11/15 00:34:00;;;;;;;;;;;;;;;7.07;100.00;100909.97;5028654;28;20038;-78
2022/11/15 00:36:46;;;;;;;25.10;18.33;;;;;;;7.08;100.00;100909.13;5002167;28;19925;-77
2022/11/15 00:39:34;;;;;;;26.58;18.20;;;;;;;7.06;100.00;100913.47;5010390;28;20056;-78
2022/11/15 00:42:20;;;;;;;28.60;19.33;;;;;;;7.06;100.00;100905.59;5020452;28;20589;-78
2022/11/15 00:45:08;;;;;;;28.65;18.63;;;;;;;7.06;100.00;100901.25;4995655;28;20262;-78
2022/11/15 00:47:55;;;;;;;26.42;19.20;;;;;;;7.02;100.00;100895.06;5027012;28;20605;-78
2022/11/15 00:50:44;;;;;;;27.48;19.95;;;;;;;7.00;100.00;100902.00;5015686;28;20361;-77
2022/11/15 00:53:30;;;;;;;27.83;18.25;;;;;;;6.95;100.00;100906.28;5021890;28;20431;-77
2022/11/15 00:56:18;;;;;;;26.77;18.48;;;;;;;6.90;100.00;100910.56;5023263;28;20638;-77
2022/11/15 00:59:05;;;;;;;26.30;19.27;;;;;;;6.83;100.00;100904.31;5012762;28;20591;-78
2022/11/15 01:01:52;;;;;;;27.77;19.27;;;;;;;6.78;100.00;100898.09;4973341;28;20534;-77
2022/11/15 01:04:39;;;;;;;30.52;19.65;;;;;;;6.73;100.00;100898.84;5014336;28;20094;-77
2022/11/15 01:07:26;;;;;;;29.63;20.15;;;;;;;6.68;100.00;100890.91;5006848;28;20053;-79
2022/11/15 01:10:14;;;;;;;27.42;19.08;;;;;;;6.62;100.00;100901.28;5039566;28;20049;-78
2022/11/15 01:13:01;;;;;;;28.75;19.60;;;;;;;6.59;100.00;100893.34;5015718;28;20045;-78
2022/11/15 01:15:48;;;;;;;28.75;20.02;;;;;;;6.54;100.00;100880.19;4997736;28;20049;-77
2022/11/15 01:18:35;;;;;;;29.10;19.77;;;;;;;6.51;100.00;100876.63;5009491;28;20038;-77
2022/11/15 01:21:25;;;;;;;26.30;18.90;;;;;;;6.44;100.00;100867.72;5019560;28;20527;-79
2022/11/15 01:24:12;;;;;;;23.80;18.35;;;;;;;6.40;100.00;100864.16;5007855;28;20042;-77
2022/11/15 01:27:00;;;;;;;27.10;19.48;;;;;;;6.38;100.00;100875.47;5014787;28;20492;-77
2022/11/15 01:29:50;;;;;;;28.30;18.17;;;;;;;6.30;100.00;100864.84;5023680;28;20392;-79
2022/11/15 01:32:37;;;;;;;26.98;19.35;;;;;;;6.30;100.00;100863.97;5011510;28;20379;-79
2022/11/15 01:35:24;;;;;;;27.05;19.50;;;;;;;6.24;100.00;100862.97;5025882;28;20041;-77
2022/11/15 01:38:11;;;;;;;29.83;19.40;;;;;;;6.20;100.00;100855.00;5020261;28;20491;-79
2022/11/15 01:40:58;;;;;;;25.05;18.08;;;;;;;6.16;100.00;100864.56;5023174;28;20042;-78
2022/11/15 01:43:58;;;;;;;24.98;17.65;;;;;;;6.13;100.00;100868.84;5026303;28;20056;-80
2022/11/15 01:46:48;;;;;;;25.98;18.83;;;;;;;6.12;100.00;100862.72;5019580;28;20057;-79
2022/11/15 01:49:40;;;;;;;24.73;17.13;;;;;;;6.15;100.00;100854.94;4998846;28;20050;-79
2022/11/15 01:52:29;;;;;;;25.17;17.27;;;;;;;6.18;100.00;100855.00;5013083;28;20250;-79
2022/11/15 01:55:22;;;;;;;23.00;17.20;;;;;;;6.22;100.00;100849.00;5025113;28;20041;-78
2022/11/15 01:58:09;;;;;;;25.33;18.13;;;;;;;6.25;100.00;100841.19;5016582;28;20034;-79
2022/11/15 02:01:03;;;;;;;24.80;18.10;;;;;;;6.29;100.00;100842.13;5026093;28;20046;-79
2022/11/15 02:03:52;;;;;;;24.23;17.70;;;;;;;6.34;100.00;100848.34;4992392;28;20597;-79
2022/11/15 02:06:41;;;;;;;26.17;18.83;;;;;;;6.37;100.00;100842.28;5000594;28;20057;-78
2022/11/15 02:09:28;;;;;;;25.13;19.05;;;;;;;6.40;100.00;100830.13;4998440;28;20292;-79
2022/11/15 02:12:19;;;;;;;26.48;19.75;;;;;;;6.44;100.00;100826.72;4994094;28;20419;-78
2022/11/15 02:15:08;;;;;;;28.63;21.45;;;;;;;6.48;100.00;100817.19;5013913;28;20042;-79
2022/11/15 02:18:37;;;;;;;26.00;19.27;;;;;;;6.50;100.00;100805.03;4983539;28;20061;-79
2022/11/15 02:21:29;;;;;;;28.13;20.23;;;;;;;6.55;100.00;100802.50;4994195;28;20068;-79
2022/11/15 02:24:42;;;;;;;26.98;21.20;;;;;;;6.59;100.00;100799.97;5016408;28;20247;-78
2022/11/15 02:27:29;;;;;;;26.80;20.33;;;;;;;6.61;100.00;100806.09;5028189;28;20053;-78
2022/11/15 02:30:28;;;;;;;31.75;21.83;;;;;;;6.65;100.00;100807.06;5021574;28;20159;-78
2022/11/15 02:33:27;;;;;;;26.58;20.10;;;;;;;6.67;100.00;100813.19;4970853;28;20148;-79
2022/11/15 02:36:26;;;;;;;27.45;19.67;;;;;;;6.71;100.00;100808.91;5027777;28;20635;-78
2022/11/15 02:39:28;;;;;;;27.98;19.95;;;;;;;6.73;100.00;100809.81;5009314;28;20034;-80
2022/11/15 02:45:35;;;;;;;30.65;20.55;;;;;;;6.78;100.00;100801.19;5011681;28;20052;-79
2022/11/15 02:48:25;;;;;;;28.88;19.25;;;;;;;6.81;100.00;100792.50;4998237;28;20451;-78
2022/11/15 02:51:13;;;;;;;31.83;19.90;;;;;;;6.84;100.00;100792.53;5024034;28;20403;-79
2022/11/15 02:54:02;;;;;;;30.88;20.45;;;;;;;6.86;100.00;100787.34;5027435;28;20499;-79
2022/11/15 02:56:56;;;;;;;28.65;19.13;;;;;;;6.88;100.00;100791.78;5025663;28;20049;-79
2022/11/15 03:00:05;;;;;;;29.60;18.95;;;;;;;6.90;100.00;100789.16;5030889;28;20491;-78
2022/11/15 03:03:10;;;;;;;31.52;19.13;;;;;;;6.92;100.00;100780.47;5024846;28;20050;-78
2022/11/15 03:06:09;;;;;;;31.88;18.75;;;;;;;6.93;100.00;100779.59;4987522;28;20502;-79
2022/11/15 03:09:35;;;;;;;30.25;19.17;;;;;;;6.95;100.00;100783.13;5023466;28;20034;-79
2022/11/15 03:12:37;;;;;;;30.02;18.48;;;;;;;6.96;100.00;100782.28;5021691;28;20542;-78
2022/11/15 03:15:32;;;;;;;31.05;18.40;;;;;;;6.97;100.00;100786.66;5016696;28;20307;-78
2022/11/15 03:18:26;;;;;;;31.92;19.10;;;;;;;6.98;100.00;100788.44;5023643;28;20054;-79
2022/11/15 03:21:16;;;;;;;26.15;17.63;;;;;;;7.00;100.00;100791.09;4993315;28;20044;-78
2022/11/15 03:24:05;;;;;;;30.27;17.90;;;;;;;7.00;100.00;100786.72;5029955;28;20040;-79
2022/11/15 03:26:54;;;;;;;32.05;19.55;;;;;;;7.01;100.00;100788.50;5022678;28;20049;-78
2022/11/15 03:29:47;;;;;;;29.13;18.75;;;;;;;7.04;100.00;100779.81;5018986;28;20048;-79
2022/11/15 03:32:40;;;;;;;30.30;18.58;;;;;;;7.06;100.00;100783.31;5027001;28;20661;-78
2022/11/15 03:35:30;;;;;;;29.25;19.15;;;;;;;7.06;100.00;100782.44;5000108;28;20269;-78
2022/11/15 03:38:26;;;;;;;32.15;20.05;;;;;;;7.08;100.00;100780.72;5019612;28;20041;-78
2022/11/15 03:41:23;;;;;;;35.38;21.08;;;;;;;7.09;100.00;100777.25;5019012;28;20030;-79
2022/11/15 03:44:22;;;;;;;34.60;21.20;;;;;;;7.13;100.00;100786.94;5016748;28;20056;-78
2022/11/15 03:47:16;;;;;;;34.95;19.83;;;;;;;7.14;100.00;100780.81;5016741;28;20481;-78
2022/11/15 03:50:10;;;;;;;32.97;18.90;;;;;;;7.17;100.00;100775.66;5024364;28;20037;-78
2022/11/15 03:53:00;;;;;;;35.33;18.92;;;;;;;7.18;100.00;100782.63;4988532;28;20164;-79
2022/11/15 03:55:47;;;;;;;28.42;18.48;;;;;;;7.19;100.00;100779.16;5014435;28;20049;-78
2022/11/15 03:58:34;;;;;;;27.25;19.08;;;;;;;7.20;100.00;100779.19;5012978;28;20069;-78
2022/11/15 04:01:21;;;;;;;32.65;19.25;;;;;;;7.20;100.00;100773.06;5022119;28;20045;-78
2022/11/15 04:04:09;;;;;;;28.63;18.92;;;;;;;7.21;100.00;100770.47;5008322;28;20438;-78
2022/11/15 04:06:57;;;;;;;31.63;18.73;;;;;;;7.21;100.00;100765.22;4982266;28;20038;-78
2022/11/15 04:10:03;;;;;;;31.27;19.52;;;;;;;7.22;100.00;100767.00;5019746;28;20403;-78
2022/11/15 04:12:50;;;;;;;30.88;18.42;;;;;;;7.24;100.00;100764.41;5010535;28;20041;-78
2022/11/15 04:15:41;;;;;;;35.55;19.98;;;;;;;7.25;100.00;100760.91;5001935;28;20054;-78
2022/11/15 04:18:28;;;;;;;34.20;18.65;;;;;;;7.27;100.00;100761.81;5018606;28;20049;-78
2022/11/15 04:24:20;;;;;;;37.22;20.77;;;;;;;7.29;100.00;100756.59;5025455;28;20042;-78
2022/11/15 04:27:07;;;;;;;36.50;19.98;;;;;;;7.30;100.00;100756.63;5025072;28;20048;-78
2022/11/15 04:29:56;;;;;;;36.63;20.08;;;;;;;7.31;100.00;100749.63;5016853;28;20246;-78
2022/11/15 04:32:43;;;;;;;37.78;21.17;;;;;;;7.32;100.00;100752.28;5015458;28;20045;-78
2022/11/15 04:35:30;;;;;;;38.08;20.75;;;;;;;7.32;100.00;100739.19;5010559;28;20061;-78
2022/11/15 04:38:17;;;;;;;38.38;21.10;;;;;;;7.34;100.00;100752.31;4979065;28;20057;-79
2022/11/15 04:41:04;;;;;;;43.85;22.48;;;;;;;7.34;100.00;100747.94;5023750;28;20037;-79
2022/11/15 04:43:51;;;;;;;47.28;22.52;;;;;;;7.34;100.00;100741.84;5019369;28;20068;-78
2022/11/15 04:46:38;;;;;;;45.90;22.63;;;;;;;7.34;100.00;100742.72;5025246;28;20038;-78
2022/11/15 04:49:25;;;;;;;49.05;23.98;;;;;;;7.36;100.00;100754.09;5010742;28;20061;-79
2022/11/15 04:52:13;;;;;;;46.22;22.80;;;;;;;7.38;100.00;100754.13;5026662;28;20046;-78
2022/11/15 04:55:00;;;;;;;53.20;24.92;;;;;;;7.38;100.00;100751.50;5024158;28;20049;-78
2022/11/15 04:57:58;;;;;;;53.13;25.27;;;;;;;7.37;100.00;100750.63;5039579;28;20045;-78
2022/11/15 05:00:45;;;;;;;51.60;23.52;;;;;;;7.37;100.00;100750.63;5017958;28;20064;-78
2022/11/15 05:06:37;;;;;;;48.55;23.60;;;;;;;7.35;100.00;100747.09;5038230;28;20050;-78
2022/11/15 05:09:24;;;;;;;49.20;25.02;;;;;;;7.35;100.00;100749.72;4984320;28;20045;-78
2022/11/15 05:12:12;;;;;;;52.72;25.17;;;;;;;7.36;100.00;100766.31;5025047;28;20033;-78
2022/11/15 05:14:59;;;;;;;51.08;24.98;;;;;;;7.36;100.00;100759.34;5015757;28;20053;-79
2022/11/15 05:17:46;;;;;;;53.33;25.33;;;;;;;7.36;100.00;100743.59;5022291;28;20053;-78
2022/11/15 05:20:33;;;;;;;58.95;26.42;;;;;;;7.37;100.00;100749.72;5018200;28;20109;-78
2022/11/15 05:23:20;;;;;;;59.00;26.08;;;;;;;7.37;100.00;100745.38;4986190;28;20049;-79
2022/11/15 05:26:09;;;;;;;49.95;25.25;;;;;;;7.39;100.00;100748.91;5013546;28;20045;-79
2022/11/15 05:28:59;;;;;;;61.17;26.85;;;;;;;7.39;100.00;100746.28;5042737;28;20049;-78
2022/11/15 05:31:46;;;;;;;56.33;24.55;;;;;;;7.41;100.00;100736.69;5014492;28;20045;-78
2022/11/15 05:34:33;;;;;;;50.55;25.27;;;;;;;7.42;100.00;100742.81;5026503;28;20057;-78
2022/11/15 05:37:20;;;;;;;65.03;28.20;;;;;;;7.42;100.00;100741.06;5027010;28;20233;-77
2022/11/15 05:40:07;;;;;;;62.95;26.00;;;;;;;7.45;100.00;100747.22;4995169;28;20044;-79
2022/11/15 05:42:54;;;;;;;65.57;28.05;;;;;;;7.47;100.00;100753.38;5031207;28;20044;-78
2022/11/15 05:45:41;;;;;;;56.72;26.90;;;;;;;7.47;100.00;100738.53;5014281;28;20041;-77
2022/11/15 05:48:28;;;;;;;59.70;27.77;;;;;;;7.48;100.00;100731.53;5013318;28;20046;-77
2022/11/15 05:51:21;;;;;;;70.28;31.58;;;;;;;7.51;100.00;100731.59;5015718;28;20261;-79
2022/11/15 05:54:09;;;;;;;68.97;30.27;;;;;;;7.52;100.00;100730.72;5001663;28;20053;-81
2022/11/15 05:56:57;;;;;;;74.63;32.25;;;;;;;7.53;100.00;100738.59;5016077;28;20384;-77
2022/11/15 05:59:44;;;;;;;91.30;31.60;;;;;;;7.55;100.00;100746.50;5022211;28;20060;-79
2022/11/15 06:02:31;;;;;;;84.57;33.40;;;;;;;7.57;100.00;100742.16;5019476;28;20273;-80
2022/11/15 06:05:19;;;;;;;96.55;35.70;;;;;;;7.58;100.00;100744.81;5016855;28;20041;-79
2022/11/15 06:08:06;;;;;;;88.45;33.95;;;;;;;7.61;100.00;100741.31;5021089;28;20034;-80
2022/11/15 06:10:53;;;;;;;98.47;36.03;;;;;;;7.63;100.00;100747.47;4995245;28;20033;-80
2022/11/15 06:13:40;;;;;;;93.78;35.78;;;;;;;7.64;100.00;100751.88;5021309;28;20037;-80
2022/11/15 06:16:27;;;;;;;97.22;36.15;;;;;;;7.67;100.00;100751.03;5030295;28;20072;-80
2022/11/15 06:19:14;;;;;;;102.75;38.88;;;;;;;7.67;100.00;100767.63;5012134;28;20329;-81
2022/11/15 06:22:01;;;;;;;93.38;35.85;;;;;;;7.70;100.00;100758.94;5024770;28;20042;-80
2022/11/15 06:24:48;;;;;;;91.30;35.58;;;;;;;7.73;100.00;100765.13;5021977;28;20050;-80
2022/11/15 06:27:36;;;;;;;105.28;39.08;;;;;;;7.75;100.00;100768.63;5006196;28;20491;-80
2022/11/15 06:30:24;;;;;;;102.85;36.25;;;;;;;7.78;100.00;100773.03;5007607;28;20371;-80
2022/11/15 06:33:12;;;;;;;84.72;35.38;;;;;;;7.80;100.00;100777.44;5004248;28;20050;-80
2022/11/15 06:36:08;;;;;;;92.60;36.70;;;;;;;7.83;100.00;100770.50;5009470;28;20038;-81
2022/11/15 06:39:04;;;;;;;92.35;36.92;;;;;;;7.87;100.00;100772.28;5011542;28;20440;-80
2022/11/15 06:41:51;;;;;;;111.15;40.08;;;;;;;7.89;100.00;100778.44;4976771;28;20392;-81
2022/11/15 06:44:38;;;;;;;89.70;37.50;;;;;;;7.91;100.00;100780.19;4971075;28;20045;-81
2022/11/15 06:47:25;;;;;;;86.32;36.95;;;;;;;7.95;100.00;100779.38;4994625;28;20056;-79
2022/11/15 06:50:13;;;;;;;94.38;38.63;;;;;;;7.99;100.00;100785.53;5009376;28;20052;-79
2022/11/15 06:53:07;;;;;;;88.50;36.97;;;;;;;8.02;100.00;100777.72;5013839;28;20076;-79
2022/11/15 06:56:06;;;;;;;87.90;37.38;;;;;;;8.06;100.00;100783.91;5019475;28;20273;-79
2022/11/15 06:58:53;;;;;;;96.10;34.05;;;;;;;8.09;100.00;100786.53;5011956;28;20034;-80
2022/11/15 07:01:40;;;;;;;93.07;37.08;;;;;;;8.12;100.00;100782.22;4993706;28;20337;-78
2022/11/15 07:04:27;;;;;;;86.00;36.25;;;;;;;8.15;100.00;100786.63;5002540;28;20049;-79
2022/11/15 07:07:14;;;;;;;90.97;37.10;;;;;;;8.18;100.00;100782.31;5013242;28;20037;-81
2022/11/15 07:10:03;;;;;;;88.05;37.33;;;;;;;8.22;100.00;100784.94;5018934;28;20034;-81
2022/11/15 07:12:52;;;;;;;90.93;36.33;;;;;;;8.24;100.00;100776.25;5008060;28;20041;-82
2022/11/15 07:15:39;;;;;;;85.55;36.90;;;;;;;8.28;100.00;100790.25;5011590;28;20057;-81
2022/11/15 07:18:27;;;;;;;78.85;34.65;;;;;;;8.31;100.00;100779.81;5021773;28;20049;-83
2022/11/15 07:21:14;;;;;;;77.50;35.20;;;;;;;8.35;100.00;100792.09;5012176;28;20037;-82
2022/11/15 07:24:01;;;;;;;82.88;34.70;;;;;;;8.37;100.00;100786.03;5010113;28;20297;-80
2022/11/15 07:26:48;;;;;;;70.70;32.72;;;;;;;8.41;100.00;100786.91;4980920;28;20056;-82
2022/11/15 07:29:35;;;;;;;72.55;34.33;;;;;;;8.45;100.00;100779.97;4995058;28;20526;-80
2022/11/15 07:32:22;;;;;;;69.95;33.72;;;;;;;8.49;100.00;100794.94;5021057;28;20041;-80
2022/11/15 07:35:11;;;;;;;74.50;33.22;;;;;;;8.52;100.00;100790.56;5033845;28;20045;-79
2022/11/15 07:38:02;;;;;;;68.25;32.05;;;;;;;8.55;100.00;100784.50;5001333;28;20399;-79
2022/11/15 07:40:57;;;;;;;61.97;30.98;;;;;;;8.58;100.00;100788.03;5016910;28;20034;-81
2022/11/15 07:43:45;;;;;;;63.75;31.40;;;;;;;8.62;100.00;100788.03;4987220;28;20033;-82
2022/11/15 07:46:32;;;;;;;55.80;29.33;;;;;;;8.64;100.00;100795.09;5013509;28;20033;-82
2022/11/15 07:49:22;;;;;;;55.03;28.83;;;;;;;8.67;100.00;100786.34;5005100;28;20052;-84
2022/11/15 07:52:10;;;;;;;51.97;29.23;;;;;;;8.69;100.00;100792.50;4993179;28;20053;-81
2022/11/15 07:54:57;;;;;;;56.00;28.00;;;;;;;8.73;100.00;100796.91;4996778;28;20788;-81
2022/11/15 07:57:44;;;;;;;59.28;29.05;;;;;;;8.74;100.00;100793.44;4986453;28;20041;-80
2022/11/15 08:00:33;;;;;;;59.85;29.10;;;;;;;8.77;100.00;100788.19;4984094;28;20049;-80
2022/11/15 08:03:20;;;;;;;50.00;28.23;;;;;;;8.81;100.00;100791.72;5013120;28;20395;-80
2022/11/15 08:06:07;;;;;;;46.67;26.38;;;;;;;8.83;100.00;100796.16;5009040;28;20056;-79
2022/11/15 08:08:54;;;;;;;46.63;25.13;;;;;;;8.86;100.00;100795.28;5013107;28;20037;-79
2022/11/15 08:11:41;;;;;;;52.33;27.05;;;;;;;8.90;100.00;100790.09;5015430;28;20057;-79
2022/11/15 08:14:29;;;;;;;48.80;27.70;;;;;;;8.92;100.00;100800.59;4979591;28;20034;-80
2022/11/15 08:17:16;;;;;;;47.85;26.85;;;;;;;8.95;100.00;100793.63;5008645;28;20058;-80
2022/11/15 08:20:04;;;;;;;40.42;24.42;;;;;;;9.00;100.00;100792.78;5022066;28;20530;-81
2022/11/15 08:22:51;;;;;;;50.08;27.55;;;;;;;9.03;100.00;100795.44;5018458;28;20257;-79
2022/11/15 08:25:40;;;;;;;43.78;26.58;;;;;;;9.05;100.00;100785.81;5001734;28;20041;-82
2022/11/15 08:28:26;;;;;;;42.65;24.52;;;;;;;9.07;100.00;100792.84;5013885;28;20406;-82
2022/11/15 08:31:17;;;;;;;44.05;25.05;;;;;;;9.12;100.00;100785.00;4964052;28;20041;-81
2022/11/15 08:34:05;;;;;;;34.10;23.40;;;;;;;9.15;100.00;100791.19;4997938;28;20505;-81
2022/11/15 08:36:52;;;;;;;40.33;25.10;;;;;;;9.19;100.00;100794.72;5002261;28;20068;-81
2022/11/15 08:39:39;;;;;;;38.35;24.55;;;;;;;9.22;100.00;100785.97;5023622;28;20494;-81
2022/11/15 08:42:26;;;;;;;39.03;24.83;;;;;;;9.25;100.00;100792.13;5011997;28;20380;-80
2022/11/15 08:45:13;;;;;;;42.97;25.77;;;;;;;9.30;100.00;100787.78;4991683;28;20391;-79
2022/11/15 08:48:02;;;;;;;44.10;25.60;;;;;;;9.34;100.00;100783.44;5008072;28;20053;-80
2022/11/15 08:50:54;;;;;;;40.05;23.77;;;;;;;9.40;100.00;100786.09;4992584;28;20046;-79
2022/11/15 08:53:43;;;;;;;40.55;23.55;;;;;;;9.49;100.00;100786.16;5024623;28;20041;-80
2022/11/15 08:56:30;;;;;;;36.70;23.20;;;;;;;9.56;100.00;100774.81;4999554;28;20045;-80
2022/11/15 08:59:17;;;;;;;39.80;25.00;;;;;;;9.66;100.00;100770.50;5004844;28;20065;-80
2022/11/15 09:02:05;;;;;;;35.88;22.98;;;;;;;9.71;100.00;100781.03;4958242;28;20064;-80
2022/11/15 09:04:52;;;;;;;38.22;23.92;;;;;;;9.76;100.00;100774.91;5028153;28;20506;-79
2022/11/15 09:07:40;;;;;;;32.33;21.63;;;;;;;9.81;100.00;100768.78;5009255;28;20065;-80
2022/11/15 09:10:28;;;;;;;43.47;22.73;;;;;;;9.84;100.00;100774.94;5006191;28;20083;-80
2022/11/15 09:13:15;;;;;;;34.65;22.42;;;;;;;9.88;100.00;100767.97;5009628;28;20046;-80
2022/11/15 09:16:04;;;;;;;37.33;23.55;;;;;;;9.93;100.00;100767.09;5005370;28;20044;-80
2022/11/15 09:18:53;;;;;;;37.25;22.48;;;;;;;10.02;100.00;100761.00;4992794;28;20395;-79
2022/11/15 09:21:40;;;;;;;34.58;23.25;;;;;;;10.12;100.00;100746.13;5015602;28;20528;-79
2022/11/15 09:24:27;;;;;;;30.35;21.60;;;;;;;10.20;100.00;100756.69;5002322;28;20038;-79
2022/11/15 09:27:14;;;;;;;33.17;21.58;;;;;;;10.32;100.00;100756.72;5008417;28;20037;-80
2022/11/15 09:30:01;;;;;;;29.75;20.80;;;;;;;10.39;100.00;100753.25;4989399;28;20480;-80
2022/11/15 09:32:49;;;;;;;34.13;20.58;;;;;;;10.46;100.00;100755.03;5010823;28;20034;-78
2022/11/15 09:35:36;;;;;;;28.15;19.85;;;;;;;10.51;100.00;100750.66;5021246;28;20520;-78
2022/11/15 09:38:24;;;;;;;32.75;20.35;;;;;;;10.54;100.00;100757.69;5003506;28;20218;-78
2022/11/15 09:41:29;;;;;;;33.35;20.23;;;;;;;10.57;100.00;100748.88;4985128;28;20049;-78
2022/11/15 09:44:24;;;;;;;30.85;19.92;;;;;;;10.61;100.00;100753.31;5005533;28;20375;-78
2022/11/15 09:47:24;;;;;;;26.58;19.20;;;;;;;10.63;100.00;100755.06;5000845;28;20410;-78
2022/11/15 09:50:32;;;;;;;27.85;20.38;;;;;;;10.64;100.00;100751.56;4982328;28;20255;-77
2022/11/15 09:53:01;;;;;;;34.17;20.45;;;;;;;10.66;100.00;100751.53;5001075;28;20053;-79
2022/11/15 09:55:46;;;;;;;29.60;19.58;;;;;;;10.67;100.00;100754.19;4999248;28;20049;-78
2022/11/15 09:58:25;;;;;;;27.50;19.65;;;;;;;10.70;100.00;100750.69;5014713;28;20049;-80
2022/11/15 10:01:00;;;;;;;25.00;19.23;;;;;;;10.74;100.00;100747.16;5008697;28;20064;-80
2022/11/15 10:03:41;;;;;;;26.15;18.60;;;;;;;10.75;100.00;100741.00;5009255;28;20041;-77
2022/11/15 10:06:24;;;;;;;33.45;20.10;;;;;;;10.77;100.00;100747.16;4991371;28;20053;-77
2022/11/15 10:09:12;;;;;;;31.67;20.80;;;;;;;10.77;100.00;100735.75;5000020;28;20053;-76
2022/11/15 10:11:41;;;;;;;26.42;19.27;;;;;;;10.76;100.00;100745.41;5026297;28;20057;-80
2022/11/15 10:14:20;;;;;;;27.38;19.65;;;;;;;10.77;100.00;100735.75;4994003;28;20034;-78
2022/11/15 10:17:11;;;;;;;31.17;20.70;;;;;;;10.78;100.00;100740.16;4988927;28;20049;-77
2022/11/15 10:20:07;;;;;;;34.35;21.00;;;;;;;10.75;100.00;100725.19;4993655;28;20054;-76
2022/11/15 10:22:58;;;;;;;28.33;20.80;;;;;;;10.76;100.00;100716.44;4986966;28;20411;-79
2022/11/15 10:25:34;;;;;;;30.23;21.73;;;;;;;10.76;100.00;100721.69;5022531;28;20360;-78
2022/11/15 10:28:03;;;;;;;32.53;21.25;;;;;;;10.76;100.00;100720.81;5002565;28;20054;-79
2022/11/15 10:30:38;;;;;;;28.73;19.80;;;;;;;10.77;100.00;100717.28;5022958;28;20045;-79
2022/11/15 10:33:35;;;;;;;26.83;20.92;;;;;;;10.79;100.00;100715.53;4995902;28;20044;-78
2022/11/15 10:36:13;;;;;;;29.35;21.33;;;;;;;10.79;100.00;100721.66;5002655;28;20049;-78
2022/11/15 10:38:47;;;;;;;29.98;21.95;;;;;;;10.81;100.00;100714.69;5013823;28;20402;-78
2022/11/15 10:41:16;;;;;;;29.20;21.92;;;;;;;10.81;100.00;100706.78;5028582;28;20042;-79
2022/11/15 10:44:00;;;;;;;37.13;24.35;;;;;;;10.83;100.00;100706.75;5016361;28;20052;-79
2022/11/15 10:46:28;;;;;;;28.60;21.17;;;;;;;10.82;100.00;100697.97;5014178;28;20048;-78
2022/11/15 10:49:21;;;;;;;31.63;23.60;;;;;;;10.84;100.00;100705.88;4999286;28;20446;-78
2022/11/15 10:51:56;;;;;;;31.45;23.27;;;;;;;10.84;100.00;100703.25;5011763;28;20049;-78
2022/11/15 10:54:44;;;;;;;37.72;23.48;;;;;;;10.84;100.00;100698.84;5000395;28;20324;-78
2022/11/15 10:57:17;;;;;;;36.25;24.35;;;;;;;10.85;100.00;100692.69;5024191;28;20038;-79
2022/11/15 10:59:49;;;;;;;36.58;23.90;;;;;;;10.86;100.00;100691.81;5021566;28;20045;-78
2022/11/15 11:02:32;;;;;;;31.08;22.17;;;;;;;10.87;100.00;100688.31;4987623;28;20342;-79
2022/11/15 11:05:04;;;;;;;33.25;23.08;;;;;;;10.89;100.00;100683.91;5010824;28;20495;-78
2022/11/15 11:07:35;;;;;;;32.00;23.58;;;;;;;10.89;100.00;100675.13;5019607;28;20042;-79
2022/11/15 11:10:18;;;;;;;32.20;21.00;;;;;;;10.89;100.00;100676.00;4982801;28;20050;-78
2022/11/15 11:13:38;;;;;;;30.60;20.92;;;;;;;10.88;100.00;100679.50;5022605;28;20041;-79
2022/11/15 11:16:10;;;;;;;29.27;22.20;;;;;;;10.89;100.00;100677.75;5007968;28;20042;-79
2022/11/15 11:19:13;;;;;;;29.85;21.95;;;;;;;10.88;100.00;100676.00;5028337;28;20629;-78
2022/11/15 11:21:57;;;;;;;28.67;21.38;;;;;;;10.87;100.00;100672.50;5006277;28;20050;-82
2022/11/15 11:24:36;;;;;;;30.35;22.40;;;;;;;10.87;100.00;100664.59;4986170;28;20041;-79
2022/11/15 11:27:26;;;;;;;34.42;23.95;;;;;;;10.90;100.00;100661.91;5017401;28;20044;-79
2022/11/15 11:29:54;;;;;;;30.38;22.33;;;;;;;10.93;100.00;100669.84;5009841;28;20037;-78
2022/11/15 11:32:29;;;;;;;31.85;23.10;;;;;;;10.95;100.00;100664.56;4995131;28;20045;-77
2022/11/15 11:35:17;;;;;;;28.40;21.77;;;;;;;10.96;100.00;100666.31;4989053;28;20072;-80
2022/11/15 11:38:02;;;;;;;;;;;;;;;10.96;100.00;100666.31;4996723;28;20170;-78
2022/11/15 11:40:55;;;;;;;26.52;20.42;;;;;;;10.95;100.00;100653.16;4973599;28;19928;-81
2022/11/15 11:43:35;;;;;;;;;;;;;;;10.95;100.00;100658.44;4982760;28;20046;-78
2022/11/15 11:46:26;;;;;;;24.33;19.25;;;;;;;10.96;100.00;100661.03;5017418;28;19929;-78
2022/11/15 11:49:12;;;;;;;26.15;19.63;;;;;;;10.94;100.00;100654.88;5001882;28;20049;-78
2022/11/15 11:52:00;;;;;;;23.33;18.90;;;;;;;10.96;100.00;100655.75;5009655;28;20045;-78
2022/11/15 11:54:37;;;;;;;21.92;17.10;;;;;;;11.00;100.00;100648.72;4988021;28;20053;-79
2022/11/15 11:57:16;;;;;;;25.35;18.88;;;;;;;11.04;100.00;100654.00;4975580;28;20049;-80
2022/11/15 12:00:12;;;;;;;24.52;19.30;;;;;;;11.08;100.00;100650.47;4992879;28;20594;-80
2022/11/15 12:02:47;;;;;;;26.80;18.92;;;;;;;11.11;100.00;100653.13;4986608;28;20370;-78
2022/11/15 12:05:36;;;;;;;25.67;18.70;;;;;;;11.12;100.00;100652.22;5008082;28;20057;-79
2022/11/15 12:08:24;;;;;;;22.85;18.88;;;;;;;11.14;100.00;100651.34;5004363;28;20399;-78
2022/11/15 12:11:06;;;;;;;24.10;19.58;;;;;;;11.15;100.00;100650.47;5028376;28;20104;-78
2022/11/15 12:13:36;;;;;;;21.58;19.30;;;;;;;11.15;100.00;100638.16;4993332;28;20052;-78
2022/11/15 12:16:11;;;;;;;22.83;19.60;;;;;;;11.18;100.00;100624.97;5013864;28;20514;-78
2022/11/15 12:18:50;;;;;;;25.20;20.52;;;;;;;11.22;100.00;100631.09;5011675;28;20045;-78
2022/11/15 12:21:42;;;;;;;26.33;20.58;;;;;;;11.26;100.00;100633.72;5002505;28;20383;-80
2022/11/15 12:24:17;;;;;;;21.15;18.52;;;;;;;11.31;100.00;100624.03;4971952;28;20525;-78
2022/11/15 12:26:55;;;;;;;22.60;19.70;;;;;;;11.38;100.00;100626.66;4991993;28;20481;-79
2022/11/15 12:29:31;;;;;;;;;;;;;;;11.42;100.00;100615.22;5017280;28;20411;-80
2022/11/15 12:32:03;;;;;;;21.08;17.90;;;;;;;11.43;100.00;100620.47;5014425;28;19921;-79
2022/11/15 12:34:53;;;;;;;21.90;18.70;;;;;;;11.44;100.00;100627.50;5021454;28;20048;-79
2022/11/15 12:37:47;;;;;;;21.98;17.55;;;;;;;11.44;100.00;100618.72;4989633;28;20039;-80
2022/11/15 12:40:32;;;;;;;17.98;16.02;;;;;;;11.42;100.00;100631.06;5001176;28;20030;-80
2022/11/15 12:43:37;;;;;;;21.63;16.77;;;;;;;11.40;100.00;100619.59;4970881;28;20045;-80
2022/11/15 12:46:12;;;;;;;21.90;17.95;;;;;;;11.42;100.00;100623.13;5020821;28;20371;-79
2022/11/15 12:48:41;;;;;;;19.35;17.02;;;;;;;11.47;100.00;100622.25;5024368;28;20049;-79